createdAt,value
2022-10-19T00:03:45.095Z,11.90
2022-10-19T00:06:15.661Z,13.50
2022-10-19T00:08:43.986Z,15.00
2022-10-19T00:11:12.405Z,16.00
2022-10-19T00:13:40.189Z,15.00
2022-10-19T00:16:13.643Z,13.90
2022-10-19T00:18:46.261Z,12.90
2022-10-19T00:21:16.338Z,11.40
2022-10-19T00:23:45.413Z,11.50
2022-10-19T00:26:13.630Z,10.70
2022-10-19T00:28:42.052Z,10.70
2022-10-19T00:33:46.560Z,10.30
2022-10-19T00:36:24.063Z,9.70
2022-10-19T00:38:52.394Z,9.70
2022-10-19T00:41:21.672Z,10.60
2022-10-19T00:44:01.510Z,10.10
2022-10-19T00:46:31.862Z,10.10
2022-10-19T00:49:10.005Z,10.40
2022-10-19T00:51:45.323Z,10.20
2022-10-19T00:54:14.055Z,10.80
2022-10-19T00:56:43.784Z,10.50
2022-10-19T00:59:15.148Z,10.80
2022-10-19T01:02:04.367Z,11.10
2022-10-19T01:04:38.393Z,11.60
2022-10-19T01:07:08.434Z,11.20
2022-10-19T01:09:36.649Z,10.90
2022-10-19T01:12:20.533Z,11.50
2022-10-19T01:15:22.629Z,12.50
2022-10-19T01:18:14.029Z,12.10
2022-10-19T01:21:14.454Z,11.90
2022-10-19T01:24:22.504Z,11.40
2022-10-19T01:27:20.364Z,13.00
2022-10-19T01:30:13.712Z,13.00
2022-10-19T01:32:58.904Z,13.80
2022-10-19T01:35:42.609Z,14.00
2022-10-19T01:38:26.623Z,16.00
2022-10-19T01:41:02.851Z,18.20
2022-10-19T01:43:50.731Z,14.20
2022-10-19T01:46:26.402Z,14.50
2022-10-19T01:49:03.933Z,16.60
2022-10-19T01:51:39.103Z,17.80
2022-10-19T01:54:10.334Z,14.90
2022-10-19T01:56:42.274Z,15.40
2022-10-19T01:59:11.746Z,13.40
2022-10-19T02:01:43.847Z,13.20
2022-10-19T02:04:15.477Z,15.20
2022-10-19T02:06:44.305Z,14.20
2022-10-19T02:09:18.059Z,14.70
2022-10-19T02:11:51.260Z,16.00
2022-10-19T02:14:27.638Z,15.70
2022-10-19T02:17:02.542Z,16.00
2022-10-19T02:19:30.285Z,17.00
2022-10-19T02:21:58.597Z,17.10
2022-10-19T02:24:26.528Z,18.20
2022-10-19T02:26:55.081Z,18.10
2022-10-19T02:29:23.143Z,17.90
2022-10-19T02:31:50.834Z,18.10
2022-10-19T02:34:18.729Z,17.20
2022-10-19T02:36:46.530Z,16.10
2022-10-19T02:39:14.359Z,17.00
2022-10-19T02:42:11.876Z,17.50
2022-10-19T02:44:50.744Z,18.20
2022-10-19T02:47:31.138Z,18.20
2022-10-19T02:49:59.551Z,18.30
2022-10-19T02:52:27.176Z,15.50
2022-10-19T02:54:54.906Z,17.20
2022-10-19T02:57:25.049Z,17.40
2022-10-19T02:59:53.077Z,17.30
2022-10-19T03:02:21.519Z,17.10
2022-10-19T03:04:49.217Z,15.70
2022-10-19T03:07:18.952Z,15.60
2022-10-19T03:09:46.579Z,14.20
2022-10-19T03:12:15.066Z,15.30
2022-10-19T03:14:43.287Z,15.40
2022-10-19T03:17:11.705Z,13.60
2022-10-19T03:19:39.947Z,14.20
2022-10-19T03:22:07.987Z,14.60
2022-10-19T03:24:35.602Z,15.30
2022-10-19T03:27:03.432Z,15.30
2022-10-19T03:29:31.100Z,16.50
2022-10-19T03:31:58.700Z,15.40
2022-10-19T03:34:26.406Z,15.90
2022-10-19T03:36:54.269Z,16.00
2022-10-19T03:39:22.062Z,16.70
2022-10-19T03:41:49.652Z,15.30
2022-10-19T03:44:18.005Z,15.40
2022-10-19T03:46:46.010Z,15.10
2022-10-19T03:49:13.791Z,16.00
2022-10-19T03:51:41.643Z,16.70
2022-10-19T03:54:14.965Z,15.60
2022-10-19T03:56:43.708Z,15.70
2022-10-19T03:59:14.382Z,16.40
2022-10-19T04:01:46.204Z,15.90
2022-10-19T04:04:16.342Z,15.50
2022-10-19T04:06:46.946Z,16.00
2022-10-19T04:09:17.145Z,16.50
2022-10-19T04:11:44.932Z,16.10
2022-10-19T04:14:19.207Z,17.00
2022-10-19T04:16:55.314Z,16.10
2022-10-19T04:19:22.911Z,18.00
2022-10-19T04:21:50.621Z,18.50
2022-10-19T04:24:19.079Z,19.10
2022-10-19T04:26:49.138Z,18.30
2022-10-19T04:29:19.173Z,16.50
2022-10-19T04:31:49.616Z,18.10
2022-10-19T04:34:18.175Z,18.90
2022-10-19T04:36:45.931Z,15.80
2022-10-19T04:39:14.155Z,16.20
2022-10-19T04:41:41.752Z,14.70
2022-10-19T04:44:09.662Z,14.20
2022-10-19T04:46:38.539Z,14.50
2022-10-19T04:49:06.915Z,13.60
2022-10-19T04:51:35.230Z,13.70
2022-10-19T04:54:04.443Z,13.20
2022-10-19T04:56:32.539Z,12.90
2022-10-19T04:59:01.100Z,12.60
2022-10-19T05:01:31.031Z,15.40
2022-10-19T05:04:01.062Z,14.70
2022-10-19T05:06:30.782Z,13.80
2022-10-19T05:08:59.591Z,13.90
2022-10-19T05:11:27.821Z,13.50
2022-10-19T05:13:56.991Z,13.70
2022-10-19T05:16:24.962Z,12.90
2022-10-19T05:18:59.608Z,11.30
2022-10-19T05:21:29.379Z,10.20
2022-10-19T05:23:57.775Z,9.20
2022-10-19T05:26:27.417Z,9.00
2022-10-19T05:28:59.514Z,8.90
2022-10-19T05:31:29.813Z,8.50
2022-10-19T05:33:58.593Z,7.70
2022-10-19T05:36:37.602Z,7.00
2022-10-19T05:39:23.918Z,7.30
2022-10-19T05:41:51.587Z,6.70
2022-10-19T05:44:21.838Z,6.70
2022-10-19T05:46:50.707Z,5.90
2022-10-19T05:49:20.555Z,6.20
2022-10-19T05:51:48.476Z,5.90
2022-10-19T05:54:16.518Z,5.90
2022-10-19T05:56:44.965Z,5.90
2022-10-19T05:59:18.735Z,6.00
2022-10-19T06:01:47.462Z,5.50
2022-10-19T06:06:48.506Z,5.10
2022-10-19T06:09:16.362Z,5.60
2022-10-19T06:11:44.101Z,4.80
2022-10-19T06:14:15.307Z,4.60
2022-10-19T06:16:46.017Z,4.80
2022-10-19T06:19:14.603Z,5.00
2022-10-19T06:21:45.851Z,4.80
2022-10-19T06:24:14.082Z,4.70
2022-10-19T06:26:42.051Z,4.70
2022-10-19T06:29:09.988Z,6.30
2022-10-19T06:31:38.440Z,5.30
2022-10-19T06:34:06.205Z,5.30
2022-10-19T06:36:34.428Z,5.60
2022-10-19T06:39:02.456Z,5.20
2022-10-19T06:41:31.336Z,5.00
2022-10-19T06:44:01.416Z,5.80
2022-10-19T06:46:29.124Z,5.10
2022-10-19T06:49:01.881Z,5.60
2022-10-19T06:51:32.234Z,5.20
2022-10-19T06:56:28.521Z,4.50
2022-10-19T06:58:58.537Z,4.80
2022-10-19T07:01:26.660Z,4.90
2022-10-19T07:03:55.294Z,5.00
2022-10-19T07:06:23.951Z,5.00
2022-10-19T07:08:53.297Z,4.70
2022-10-19T07:13:52.661Z,4.50
2022-10-19T07:16:24.678Z,4.10
2022-10-19T07:18:53.437Z,4.00
2022-10-19T07:21:23.411Z,4.20
2022-10-19T07:23:51.816Z,4.20
2022-10-19T07:26:27.184Z,3.80
2022-10-19T07:28:56.785Z,4.00
2022-10-19T07:31:26.581Z,3.80
2022-10-19T07:33:59.969Z,4.10
2022-10-19T07:36:30.289Z,3.70
2022-10-19T07:38:58.207Z,4.00
2022-10-19T07:41:26.690Z,3.70
2022-10-19T07:43:55.000Z,4.30
2022-10-19T07:46:26.215Z,4.00
2022-10-19T07:48:54.301Z,3.80
2022-10-19T07:51:23.741Z,3.40
2022-10-19T07:53:51.613Z,3.60
2022-10-19T07:56:22.489Z,4.00
2022-10-19T07:58:51.530Z,3.50
2022-10-19T08:01:22.566Z,3.10
2022-10-19T08:06:41.889Z,2.70
2022-10-19T08:09:11.461Z,2.70
2022-10-19T08:11:43.407Z,3.20
2022-10-19T08:14:12.781Z,3.20
2022-10-19T08:16:44.356Z,2.50
2022-10-19T08:19:16.390Z,3.00
2022-10-19T08:21:56.436Z,2.70
2022-10-19T08:24:27.647Z,2.40
2022-10-19T08:26:55.934Z,2.40
2022-10-19T08:29:30.558Z,2.30
2022-10-19T08:31:59.895Z,2.20
2022-10-19T08:34:27.837Z,2.20
2022-10-19T08:36:55.569Z,2.70
2022-10-19T08:39:23.962Z,2.50
2022-10-19T08:42:05.654Z,2.50
2022-10-19T08:44:48.639Z,2.30
2022-10-19T08:47:31.521Z,2.00
2022-10-19T08:50:00.459Z,2.60
2022-10-19T08:52:35.634Z,1.90
2022-10-19T08:55:13.914Z,2.40
2022-10-19T08:58:14.882Z,1.80
2022-10-19T09:00:51.140Z,1.80
2022-10-19T09:03:31.999Z,1.90
2022-10-19T09:06:22.154Z,2.10
2022-10-19T09:08:53.339Z,1.60
2022-10-19T09:11:26.106Z,2.10
2022-10-19T09:14:14.012Z,1.70
2022-10-19T09:16:44.181Z,1.90
2022-10-19T09:19:26.039Z,1.60
2022-10-19T09:22:00.840Z,2.20
2022-10-19T09:24:49.121Z,2.20
2022-10-19T09:27:26.887Z,1.70
2022-10-19T09:29:59.255Z,1.50
2022-10-19T09:33:15.423Z,1.20
2022-10-19T09:35:48.713Z,1.10
2022-10-19T09:38:16.928Z,1.40
2022-10-19T09:40:46.441Z,1.60
2022-10-19T09:43:28.518Z,1.30
2022-10-19T09:46:39.369Z,1.60
2022-10-19T09:49:07.378Z,1.90
2022-10-19T09:51:59.256Z,1.50
2022-10-19T09:54:36.373Z,1.40
2022-10-19T09:57:18.373Z,1.40
2022-10-19T10:00:01.260Z,1.50
2022-10-19T10:02:56.783Z,1.40
2022-10-19T10:06:19.756Z,1.70
2022-10-19T10:09:44.630Z,1.40
2022-10-19T10:12:55.441Z,1.60
2022-10-19T10:16:14.126Z,1.20
2022-10-19T10:19:29.196Z,1.30
2022-10-19T10:22:34.102Z,1.20
2022-10-19T10:25:19.171Z,1.10
2022-10-19T10:28:29.269Z,1.10
2022-10-19T10:31:05.907Z,1.50
2022-10-19T10:33:44.610Z,1.20
2022-10-19T10:36:13.463Z,1.20
2022-10-19T10:38:59.281Z,1.30
2022-10-19T10:41:31.944Z,0.90
2022-10-19T10:44:44.100Z,1.00
2022-10-19T10:50:23.992Z,0.80
2022-10-19T10:53:01.637Z,0.90
2022-10-19T10:55:31.562Z,1.10
2022-10-19T10:58:25.579Z,1.50
2022-10-19T11:00:57.097Z,1.40
2022-10-19T11:03:33.457Z,2.00
2022-10-19T11:09:41.618Z,2.30
2022-10-19T11:12:43.616Z,1.10
2022-10-19T11:16:03.053Z,1.10
2022-10-19T11:18:55.267Z,0.80
2022-10-19T11:22:05.853Z,0.70
2022-10-19T11:25:06.044Z,0.40
2022-10-19T11:31:17.442Z,0.80
2022-10-19T11:34:39.410Z,0.80
2022-10-19T11:38:17.459Z,0.30
2022-10-19T11:54:19.078Z,1.70
2022-10-19T11:57:03.616Z,1.50
2022-10-19T12:00:04.054Z,1.50
2022-10-19T12:02:50.787Z,1.40
2022-10-19T12:05:40.609Z,1.20
2022-10-19T12:08:33.548Z,1.30
2022-10-19T12:11:44.878Z,2.40
2022-10-19T12:14:59.158Z,1.60
2022-10-19T12:18:11.648Z,1.80
2022-10-19T12:23:53.122Z,1.30
2022-10-19T12:26:33.432Z,1.30
2022-10-19T12:29:12.724Z,1.60
2022-10-19T12:32:15.252Z,2.00
2022-10-19T12:35:37.299Z,1.30
2022-10-19T12:39:14.093Z,1.50
2022-10-19T12:42:20.289Z,1.30
2022-10-19T12:45:07.414Z,1.30
2022-10-19T12:47:35.358Z,1.40
2022-10-19T12:50:03.966Z,1.20
2022-10-19T12:52:55.045Z,1.50
2022-10-19T13:01:47.364Z,1.10
2022-10-19T13:04:28.099Z,1.30
2022-10-19T13:09:49.792Z,1.20
2022-10-19T13:12:26.677Z,1.00
2022-10-19T13:15:11.401Z,0.80
2022-10-19T13:17:49.460Z,0.80
2022-10-19T13:20:30.321Z,0.90
2022-10-19T13:29:39.723Z,1.30
2022-10-19T13:32:38.280Z,1.00
2022-10-19T13:35:45.927Z,1.40
2022-10-19T13:38:49.220Z,1.40
2022-10-19T13:41:46.728Z,1.30
2022-10-19T13:44:39.908Z,1.30
2022-10-19T13:47:49.538Z,1.20
2022-10-19T13:51:01.540Z,1.10
2022-10-19T13:54:05.016Z,1.00
2022-10-19T13:56:58.818Z,1.00
2022-10-19T13:59:44.919Z,0.90
2022-10-19T14:02:47.561Z,0.90
2022-10-19T14:05:24.636Z,1.40
2022-10-19T14:07:53.746Z,0.90
2022-10-19T14:13:03.362Z,1.10
2022-10-19T14:15:34.876Z,0.70
2022-10-19T14:18:06.162Z,1.00
2022-10-19T14:20:36.087Z,1.30
2022-10-19T14:26:20.776Z,1.40
2022-10-19T14:28:54.323Z,1.40
2022-10-19T14:31:27.695Z,1.40
2022-10-19T14:34:01.255Z,1.30
2022-10-19T14:36:35.310Z,1.30
2022-10-19T14:39:03.544Z,1.40
2022-10-19T14:41:38.424Z,1.50
2022-10-19T14:44:42.231Z,1.50
2022-10-19T14:47:23.718Z,1.50
2022-10-19T14:49:51.852Z,1.40
2022-10-19T14:52:35.974Z,1.30
2022-10-19T14:55:12.735Z,1.20
2022-10-19T14:57:45.718Z,1.10
2022-10-19T15:03:01.928Z,1.60
2022-10-19T15:05:33.221Z,1.40
2022-10-19T15:08:11.364Z,1.50
2022-10-19T15:10:45.948Z,1.60
2022-10-19T15:13:25.077Z,1.70
2022-10-19T15:15:55.198Z,1.50
2022-10-19T15:18:48.321Z,1.30
2022-10-19T15:21:21.160Z,1.40
2022-10-19T15:23:50.733Z,1.60
2022-10-19T15:26:21.030Z,1.30
2022-10-19T15:28:49.558Z,1.50
2022-10-19T15:31:20.875Z,1.50
2022-10-19T15:33:54.153Z,1.40
2022-10-19T15:36:23.267Z,1.70
2022-10-19T15:39:18.516Z,1.20
2022-10-19T15:41:54.484Z,1.90
2022-10-19T15:44:54.535Z,1.60
2022-10-19T15:47:24.461Z,1.70
2022-10-19T15:49:58.117Z,1.50
2022-10-19T15:52:28.924Z,1.50
2022-10-19T15:54:58.404Z,1.60
2022-10-19T15:57:35.135Z,1.70
2022-10-19T16:00:09.148Z,1.80
2022-10-19T16:02:36.813Z,1.70
2022-10-19T16:07:40.269Z,1.60
2022-10-19T16:10:13.249Z,2.10
2022-10-19T16:12:40.925Z,1.70
2022-10-19T16:15:12.530Z,2.00
2022-10-19T16:17:40.573Z,1.70
2022-10-19T16:20:10.558Z,2.30
2022-10-19T16:22:38.405Z,2.40
2022-10-19T16:25:06.385Z,3.50
2022-10-19T16:27:34.339Z,3.10
2022-10-19T16:30:02.307Z,2.70
2022-10-19T16:32:29.977Z,2.60
2022-10-19T16:34:57.692Z,3.10
2022-10-19T16:37:25.450Z,2.70
2022-10-19T16:39:53.023Z,2.90
2022-10-19T16:42:21.861Z,2.90
2022-10-19T16:44:50.217Z,2.50
2022-10-19T16:47:19.024Z,2.50
2022-10-19T16:49:47.731Z,2.20
2022-10-19T16:52:15.625Z,2.30
2022-10-19T16:54:43.289Z,2.30
2022-10-19T16:57:10.959Z,2.30
2022-10-19T16:59:38.856Z,2.50
2022-10-19T17:02:06.463Z,2.80
2022-10-19T17:04:34.228Z,3.40
2022-10-19T17:07:02.313Z,3.40
2022-10-19T17:09:41.379Z,2.60
2022-10-19T17:12:11.434Z,2.00
2022-10-19T17:14:41.511Z,2.60
2022-10-19T17:17:10.607Z,2.40
2022-10-19T17:19:39.277Z,2.60
2022-10-19T17:22:06.991Z,2.60
2022-10-19T17:24:34.804Z,2.60
2022-10-19T17:27:03.553Z,2.80
2022-10-19T17:29:31.195Z,2.90
2022-10-19T17:31:59.249Z,2.40
2022-10-19T17:34:27.726Z,2.30
2022-10-19T17:36:55.393Z,3.00
2022-10-19T17:39:28.889Z,3.10
2022-10-19T17:42:02.181Z,3.40
2022-10-19T17:44:31.247Z,2.60
2022-10-19T17:47:00.401Z,2.50
2022-10-19T17:54:25.736Z,2.50
2022-10-19T17:56:53.507Z,3.30
2022-10-19T17:59:30.247Z,2.90
2022-10-19T18:02:07.469Z,2.90
2022-10-19T18:07:04.039Z,3.60
2022-10-19T18:09:31.694Z,2.90
2022-10-19T18:12:02.272Z,3.00
2022-10-19T18:14:32.167Z,3.30
2022-10-19T18:16:59.832Z,2.80
2022-10-19T18:19:27.901Z,3.60
2022-10-19T18:21:56.240Z,3.20
2022-10-19T18:24:23.993Z,4.70
2022-10-19T18:26:51.614Z,4.20
2022-10-19T18:29:22.934Z,4.50
2022-10-19T18:31:52.495Z,5.10
2022-10-19T18:34:24.627Z,4.50
2022-10-19T18:36:52.835Z,4.60
2022-10-19T18:39:20.750Z,6.50
2022-10-19T18:41:55.323Z,8.10
2022-10-19T18:44:26.534Z,7.70
2022-10-19T18:46:55.951Z,7.50
2022-10-19T18:49:24.435Z,7.20
2022-10-19T18:51:55.183Z,9.30
2022-10-19T18:54:26.452Z,9.10
2022-10-19T18:56:55.345Z,10.20
2022-10-19T18:59:23.421Z,10.30
2022-10-19T19:01:52.120Z,10.00
2022-10-19T19:04:19.865Z,11.00
2022-10-19T19:06:47.516Z,9.80
2022-10-19T19:09:15.377Z,9.50
2022-10-19T19:11:43.374Z,10.20
2022-10-19T19:14:14.017Z,11.00
2022-10-19T19:16:43.502Z,11.10
2022-10-19T19:19:13.708Z,12.80
2022-10-19T19:21:44.209Z,9.80
2022-10-19T19:24:18.829Z,11.70
2022-10-19T19:26:52.049Z,11.20
2022-10-19T19:29:21.278Z,14.10
2022-10-19T19:31:49.086Z,13.30
2022-10-19T19:34:17.318Z,12.00
2022-10-19T19:36:49.033Z,13.20
2022-10-19T19:39:20.416Z,13.10
2022-10-19T19:41:49.884Z,12.20
2022-10-19T19:44:18.260Z,9.90
2022-10-19T19:46:46.314Z,10.60
2022-10-19T19:49:14.585Z,10.50
2022-10-19T19:51:42.436Z,10.10
2022-10-19T19:54:11.198Z,10.60
2022-10-19T19:56:40.127Z,10.50
2022-10-19T19:59:10.041Z,11.70
2022-10-19T20:01:38.322Z,11.40
2022-10-19T20:04:06.346Z,12.90
2022-10-19T20:06:35.468Z,12.00
2022-10-19T20:09:04.092Z,12.00
2022-10-19T20:11:32.142Z,10.90
2022-10-19T20:14:00.798Z,12.60
2022-10-19T20:16:31.954Z,13.00
2022-10-19T20:19:11.549Z,13.00
2022-10-19T20:21:39.873Z,17.00
2022-10-19T20:24:08.223Z,19.90
2022-10-19T20:26:36.294Z,17.10
2022-10-19T20:29:04.829Z,17.40
2022-10-19T20:31:39.343Z,12.60
2022-10-19T20:34:13.585Z,12.60
2022-10-19T20:36:41.751Z,15.00
2022-10-19T20:39:10.245Z,13.50
2022-10-19T20:41:37.921Z,11.60
2022-10-19T20:44:05.896Z,8.90
2022-10-19T20:46:33.747Z,9.40
2022-10-19T20:49:01.815Z,9.70
2022-10-19T20:51:36.539Z,8.60
2022-10-19T20:54:07.517Z,15.50
2022-10-19T20:56:38.320Z,16.40
2022-10-19T20:59:09.071Z,16.80
2022-10-19T21:01:38.994Z,16.30
2022-10-19T21:04:09.569Z,14.80
2022-10-19T21:06:40.161Z,17.00
2022-10-19T21:09:09.608Z,16.50
2022-10-19T21:14:14.602Z,15.40
2022-10-19T21:16:42.935Z,14.90
2022-10-19T21:19:16.481Z,14.20
2022-10-19T21:21:47.253Z,11.00
2022-10-19T21:24:19.573Z,13.80
2022-10-19T21:26:47.560Z,11.30
2022-10-19T21:29:16.623Z,13.50
2022-10-19T21:31:48.765Z,11.30
2022-10-19T21:34:19.857Z,13.10
2022-10-19T21:36:48.093Z,13.30
2022-10-19T21:39:16.183Z,13.10
2022-10-19T21:41:44.150Z,13.40
2022-10-19T21:44:12.139Z,13.40
2022-10-19T21:46:40.149Z,12.20
2022-10-19T21:49:11.068Z,12.60
2022-10-19T21:51:48.100Z,13.20
2022-10-19T21:54:19.339Z,13.50
2022-10-19T21:56:47.500Z,12.80
2022-10-19T21:59:15.777Z,12.40
2022-10-19T22:01:44.232Z,13.10
2022-10-19T22:04:17.182Z,12.60
2022-10-19T22:06:45.528Z,12.60
2022-10-19T22:09:16.911Z,11.90
2022-10-19T22:11:45.539Z,11.00
2022-10-19T22:14:15.475Z,9.80
2022-10-19T22:16:43.853Z,9.70
2022-10-19T22:19:12.059Z,10.50
2022-10-19T22:21:40.430Z,9.80
2022-10-19T22:24:12.768Z,10.30
2022-10-19T22:26:44.447Z,10.00
2022-10-19T22:29:12.693Z,10.10
2022-10-19T22:31:40.340Z,10.70
2022-10-19T22:34:16.453Z,9.90
2022-10-19T22:36:44.855Z,10.00
2022-10-19T22:39:13.448Z,10.80
2022-10-19T22:41:41.222Z,11.10
2022-10-19T22:44:09.052Z,11.50
2022-10-19T22:46:36.771Z,11.90
2022-10-19T22:49:04.710Z,9.60
2022-10-19T22:51:32.623Z,9.40
2022-10-19T22:54:00.553Z,10.00
2022-10-19T22:56:28.378Z,10.30
2022-10-19T22:59:00.564Z,10.50
2022-10-19T23:01:28.382Z,11.90
2022-10-19T23:03:56.542Z,11.00
2022-10-19T23:06:24.359Z,11.00
2022-10-19T23:08:53.691Z,11.30
2022-10-19T23:13:49.487Z,10.20
2022-10-19T23:16:17.581Z,10.40
2022-10-19T23:18:45.490Z,9.70
2022-10-19T23:21:14.476Z,8.20
2022-10-19T23:23:42.593Z,7.60
2022-10-19T23:26:15.728Z,7.70
2022-10-19T23:28:45.421Z,6.60
2022-10-19T23:31:16.381Z,6.70
2022-10-19T23:33:45.155Z,7.80
2022-10-19T23:36:14.773Z,7.50
2022-10-19T23:41:12.951Z,8.10
2022-10-19T23:43:41.032Z,8.00
2022-10-19T23:46:08.812Z,7.60
2022-10-19T23:48:36.729Z,7.80
2022-10-19T23:51:07.828Z,7.40
2022-10-19T23:53:40.930Z,8.90
2022-10-19T23:56:29.771Z,8.30
2022-10-19T23:58:58.047Z,7.70
